OLBA/BEY METAR and TAF weather

Enter ICAO airport designator
Station Type Date Time Source
OLBA METAR 2022/07/01 02:00 UTC NOAA

OLBA 010200Z 12003KT 8000 NSC 24/19 Q1007 NOSIG


Station Type Date Time Source
OLBA Decoded METAR 2022/07/01 02:00 UTC NOAA

Beyrouth Aeroport , Lebanon (OLBA) 33-49N 035-29E 19M
Jun 30, 2022 - 10:00 PM EDT / 2022.07.01 0200 UTC
Wind: from the ESE (120 degrees) at 3 MPH (3 KT):0
Visibility: 4 mile(s):0
Temperature: 75 F (24 C)
Dew Point: 66 F (19 C)
Relative Humidity: 73%
Pressure (altimeter): 29.74 in. Hg (1007 hPa)
ob: OLBA 010200Z 12003KT 8000 NSC 24/19 Q1007 NOSIG
cycle: 2

Station Type Date Time Source
OLBA TAF 2022/06/30 18:54 UTC NOAA

TAF TAF OLBA 301600Z 3018/0124 VRB03KT 8000 SCT026
TEMPO 3018/0124 4000 BR
BECMG 0109/0112 23010G20KT
BECMG 0121/0124 VRB03KT

Example: see airport list